Time;durP1;ratioP1;P1;durP2;ratioP2;P2;SDS_P1;SDS_P2;PMS_P1;PMS_P2;Temp;Humidity;BMP_temperature;BMP_pressure;BME280_temperature;BME280_humidity;BME280_pressure;Samples;Min_cycle;Max_cycle;Signal;HPM_P1;HPM_P2
2021/09/30 00:04:20;;;;;;;24.55;8.98;;;;;;;13.85;86.68;100896.88;713975;1202;114543;-74
2021/09/30 00:34:59;;;;;;;15.78;8.10;;;;;;;13.77;87.87;100906.31;713510;1202;115894;-72
2021/09/30 00:50:10;;;;;;;20.20;8.10;;;;;;;13.81;89.63;100912.14;713905;1200;115617;-73
2021/09/30 02:23:24;;;;;;;19.13;8.55;;;;;;;13.38;94.56;100953.78;713713;1182;114890;-74
2021/09/30 03:09:20;;;;;;;20.90;9.98;;;;;;;12.61;100.00;100977.08;713900;1202;114530;-74
2021/09/30 03:24:22;;;;;;;22.67;9.73;;;;;;;12.48;100.00;100979.10;714074;1178;114060;-74
2021/09/30 03:39:25;;;;;;;25.18;9.58;;;;;;;12.34;100.00;100996.08;713882;1178;115785;-73
2021/09/30 04:09:41;;;;;;;15.83;9.70;;;;;;;12.26;100.00;101003.75;713816;1202;115415;-73
2021/09/30 04:24:45;;;;;;;134.35;40.60;;;;;;;12.17;100.00;101009.78;713735;1202;115367;-73
2021/09/30 04:39:48;;;;;;;49.77;18.63;;;;;;;12.21;100.00;101000.70;713887;1205;115074;-73
2021/09/30 04:54:50;;;;;;;39.00;15.90;;;;;;;12.17;100.00;101015.05;713869;1202;115225;-73
2021/09/30 05:09:52;;;;;;;32.23;13.03;;;;;;;12.15;100.00;101039.70;713814;1200;114915;-74
2021/09/30 05:24:56;;;;;;;22.43;12.25;;;;;;;12.15;100.00;101044.97;713967;1205;115944;-74
2021/09/30 05:39:58;;;;;;;23.35;12.40;;;;;;;12.24;100.00;101072.28;714889;1200;115235;-72
2021/09/30 05:55:01;;;;;;;28.00;13.57;;;;;;;12.22;100.00;101081.27;713892;1202;115910;-74
2021/09/30 06:10:21;;;;;;;34.73;16.83;;;;;;;12.36;100.00;101088.03;714187;1205;115936;-73
2021/09/30 06:25:23;;;;;;;43.48;25.75;;;;;;;12.74;100.00;101097.97;713858;1202;115603;-73
2021/09/30 06:40:26;;;;;;;33.50;17.05;;;;;;;12.78;100.00;101111.72;713918;1178;114897;-73
2021/09/30 06:55:28;;;;;;;42.23;22.75;;;;;;;12.63;100.00;101121.75;714071;1200;114810;-77
2021/09/30 07:10:30;;;;;;;40.88;22.60;;;;;;;13.28;100.00;101130.27;714281;1203;115108;-72
2021/09/30 07:25:33;;;;;;;51.38;25.58;;;;;;;14.15;100.00;101142.02;714237;1205;114925;-75
2021/09/30 07:40:36;;;;;;;71.03;41.73;;;;;;;14.24;100.00;101161.48;714288;1205;114231;-80
2021/09/30 07:55:44;;;;;;;24.83;16.53;;;;;;;13.80;100.00;101180.30;714569;1202;114815;-82
2021/09/30 08:10:46;;;;;;;23.18;14.98;;;;;;;14.08;100.00;101185.77;714531;1202;114684;-83
2021/09/30 08:25:48;;;;;;;15.00;10.97;;;;;;;15.16;100.00;101206.88;714763;1203;114355;-82
2021/09/30 08:40:51;;;;;;;15.00;9.97;;;;;;;14.41;100.00;101225.11;714196;1202;115158;-80
2021/09/30 08:55:54;;;;;;;15.20;9.28;;;;;;;14.40;100.00;101240.13;714435;1205;114950;-79
2021/09/30 09:10:58;;;;;;;12.60;8.80;;;;;;;14.63;100.00;101250.42;714064;1200;115294;-80
2021/09/30 09:26:12;;;;;;;12.00;7.83;;;;;;;14.84;100.00;101260.05;714151;1202;114878;-82
2021/09/30 09:41:30;;;;;;;9.53;6.97;;;;;;;14.94;100.00;101271.46;714328;1202;115338;-82
2021/09/30 09:56:32;;;;;;;16.85;9.40;;;;;;;14.72;100.00;101278.67;714184;1202;114008;-82
2021/09/30 10:11:36;;;;;;;18.75;7.35;;;;;;;14.53;100.00;101281.25;713785;1192;114208;-79
2021/09/30 10:26:44;;;;;;;10.97;6.47;;;;;;;14.58;100.00;101310.72;714289;1177;114180;-83
2021/09/30 10:41:47;;;;;;;10.00;5.33;;;;;;;14.60;100.00;101311.44;714311;1200;115560;-81
2021/09/30 10:56:53;;;;;;;6.63;4.47;;;;;;;14.79;100.00;101308.86;714719;1176;114310;-82
2021/09/30 11:12:12;;;;;;;8.45;4.80;;;;;;;14.92;100.00;101313.02;714249;1202;115610;-82
2021/09/30 11:27:17;;;;;;;9.35;4.28;;;;;;;15.05;100.00;101312.75;714127;1202;114652;-81
2021/09/30 11:42:24;;;;;;;6.38;3.63;;;;;;;16.22;95.21;101319.55;714219;1204;114063;-81
2021/09/30 11:57:27;;;;;;;11.38;3.60;;;;;;;16.61;91.54;101324.64;714394;1202;114967;-80
2021/09/30 12:12:35;;;;;;;6.43;3.23;;;;;;;18.13;85.39;101320.98;714131;1203;116097;-83
2021/09/30 12:27:40;;;;;;;6.83;3.40;;;;;;;18.27;81.15;101338.97;714623;1202;114309;-80
2021/09/30 12:43:27;;;;;;;8.70;2.37;;;;;;;18.42;78.79;101320.61;714626;1202;114490;-81
2021/09/30 12:58:35;;;;;;;3.67;2.77;;;;;;;17.66;76.97;101331.98;713952;1205;115010;-83
2021/09/30 13:13:38;;;;;;;7.20;2.60;;;;;;;18.25;77.56;101324.18;714685;1205;113603;-80
2021/09/30 13:28:40;;;;;;;4.53;2.15;;;;;;;18.28;75.06;101329.19;714721;1200;114938;-80
2021/09/30 13:43:44;;;;;;;7.13;3.10;;;;;;;21.80;71.32;101326.45;719262;1200;114172;-80
2021/09/30 13:58:46;;;;;;;3.65;1.95;;;;;;;26.04;58.69;101333.90;715100;1202;114277;-79
2021/09/30 14:14:00;;;;;;;4.23;1.60;;;;;;;27.65;55.21;101332.76;714458;1200;113825;-81
2021/09/30 14:29:04;;;;;;;490.30;436.48;;;;;;;25.80;53.04;101321.95;714465;1202;114817;-80
2021/09/30 14:44:09;;;;;;;7.97;4.30;;;;;;;22.39;55.51;101322.09;718177;1188;114340;-81
2021/09/30 14:59:11;;;;;;;3.88;2.10;;;;;;;20.05;58.93;101329.73;714970;1200;113507;-82
2021/09/30 15:14:13;;;;;;;5.95;3.50;;;;;;;19.88;62.89;101339.60;714179;1201;114284;-81
2021/09/30 15:29:17;;;;;;;63.23;39.57;;;;;;;19.85;64.00;101331.94;714285;1206;114212;-79
2021/09/30 15:44:20;;;;;;;12.90;6.53;;;;;;;19.59;65.31;101348.95;714209;1205;113904;-79
2021/09/30 15:59:22;;;;;;;38.90;14.40;;;;;;;20.71;64.07;101361.41;714908;1202;114313;-79
2021/09/30 16:14:24;;;;;;;34.00;23.90;;;;;;;20.09;63.54;101368.33;714508;1203;114937;-81
2021/09/30 16:29:26;;;;;;;119.40;78.07;;;;;;;17.54;67.48;101365.90;714952;1202;114579;-80
2021/09/30 16:44:29;;;;;;;8.75;6.93;;;;;;;16.21;71.14;101394.69;714697;1203;114134;-80
2021/09/30 16:59:31;;;;;;;11.73;6.70;;;;;;;15.01;75.42;101404.66;714137;1203;114021;-80
2021/09/30 17:14:33;;;;;;;8.53;4.73;;;;;;;14.55;78.35;101413.98;714826;1177;114066;-80
2021/09/30 17:29:35;;;;;;;84.38;43.83;;;;;;;14.09;80.67;101422.23;714505;1202;114513;-80
2021/09/30 17:44:38;;;;;;;94.83;47.17;;;;;;;13.77;82.83;101448.70;714592;1204;115553;-80
2021/09/30 17:59:41;;;;;;;16.83;10.00;;;;;;;13.44;85.53;101445.25;714386;1205;114604;-79
2021/09/30 18:14:43;;;;;;;37.98;18.50;;;;;;;13.10;87.61;101458.48;715019;1200;114429;-82
2021/09/30 18:29:46;;;;;;;21.95;11.45;;;;;;;12.66;89.14;101474.23;715685;1200;115612;-81
2021/09/30 18:44:48;;;;;;;84.27;24.87;;;;;;;12.28;90.45;101485.91;715020;1205;115305;-81
2021/09/30 18:59:50;;;;;;;23.17;13.63;;;;;;;11.88;91.66;101494.98;714930;1203;114031;-80
2021/09/30 19:14:52;;;;;;;16.85;10.08;;;;;;;11.49;92.76;101489.08;715710;1202;113854;-80
2021/09/30 19:29:55;;;;;;;18.35;12.00;;;;;;;11.25;94.56;101507.47;716242;1200;115842;-80
2021/09/30 19:44:57;;;;;;;48.65;17.63;;;;;;;11.04;95.74;101522.95;716235;1203;113788;-80
2021/09/30 19:59:59;;;;;;;28.40;13.88;;;;;;;10.79;96.69;101527.29;715344;1177;113777;-79
2021/09/30 20:15:02;;;;;;;21.85;12.05;;;;;;;10.54;96.77;101536.02;714850;1202;114743;-79
2021/09/30 20:30:07;;;;;;;35.98;16.93;;;;;;;10.30;98.56;101539.31;716097;1205;115269;-78
2021/09/30 20:45:10;;;;;;;63.08;24.65;;;;;;;10.09;99.13;101552.90;715593;1200;114269;-78
2021/09/30 21:00:12;;;;;;;40.80;19.80;;;;;;;10.01;99.47;101565.68;715898;1200;114320;-79
2021/09/30 21:15:14;;;;;;;39.08;18.68;;;;;;;9.76;100.00;101569.05;715088;1182;114134;-82
2021/09/30 21:30:17;;;;;;;23.53;11.43;;;;;;;9.50;100.00;101576.78;714702;1181;115718;-79
2021/09/30 21:45:19;;;;;;;22.47;11.93;;;;;;;9.33;100.00;101581.31;714147;1205;114632;-80
2021/09/30 22:00:23;;;;;;;26.00;12.80;;;;;;;9.06;100.00;101586.45;714056;1202;114528;-79
2021/09/30 22:15:25;;;;;;;22.03;12.75;;;;;;;8.78;100.00;101590.75;714124;1205;114014;-79
2021/09/30 22:30:28;;;;;;;37.53;18.37;;;;;;;8.55;100.00;101591.27;714142;1177;114094;-81
2021/09/30 22:45:31;;;;;;;24.00;13.08;;;;;;;8.42;100.00;101593.72;714131;1203;113996;-79
2021/09/30 23:00:33;;;;;;;29.85;15.03;;;;;;;8.22;100.00;101589.65;714226;1200;114505;-80
2021/09/30 23:15:35;;;;;;;35.75;15.10;;;;;;;8.03;100.00;101589.86;713880;1205;114103;-80
2021/09/30 23:30:38;;;;;;;45.95;19.48;;;;;;;7.66;100.00;101601.42;713843;1202;114839;-79
2021/09/30 23:45:40;;;;;;;49.65;20.05;;;;;;;7.55;100.00;101597.70;714198;1178;114051;-80
